sensor_id;sensor_type;location;lat;lon;timestamp;P1;durP1;ratioP1;P2;durP2;ratioP2
26656;SDS011;14279;50.010;8.260;2023-06-22T00:01:47;6.83;;;5.20;;
26656;SDS011;14279;50.010;8.260;2023-06-22T00:04:12;7.63;;;5.43;;
26656;SDS011;14279;50.010;8.260;2023-06-22T00:06:37;13.33;;;5.67;;
26656;SDS011;14279;50.010;8.260;2023-06-22T00:09:03;8.80;;;4.90;;
26656;SDS011;14279;50.010;8.260;2023-06-22T00:11:28;8.63;;;5.50;;
26656;SDS011;14279;50.010;8.260;2023-06-22T00:13:54;7.03;;;5.00;;
26656;SDS011;14279;50.010;8.260;2023-06-22T00:16:19;8.50;;;5.90;;
26656;SDS011;14279;50.010;8.260;2023-06-22T00:18:44;7.30;;;5.00;;
26656;SDS011;14279;50.010;8.260;2023-06-22T00:21:12;9.30;;;5.47;;
26656;SDS011;14279;50.010;8.260;2023-06-22T00:23:38;7.43;;;5.40;;
26656;SDS011;14279;50.010;8.260;2023-06-22T00:26:03;9.30;;;5.60;;
26656;SDS011;14279;50.010;8.260;2023-06-22T00:28:28;7.07;;;4.93;;
26656;SDS011;14279;50.010;8.260;2023-06-22T00:30:54;7.53;;;5.87;;
26656;SDS011;14279;50.010;8.260;2023-06-22T00:33:19;7.33;;;5.93;;
26656;SDS011;14279;50.010;8.260;2023-06-22T00:35:44;9.10;;;5.67;;
26656;SDS011;14279;50.010;8.260;2023-06-22T00:38:09;9.73;;;6.03;;
26656;SDS011;14279;50.010;8.260;2023-06-22T00:40:35;8.70;;;5.50;;
26656;SDS011;14279;50.010;8.260;2023-06-22T00:43:01;7.70;;;6.07;;
26656;SDS011;14279;50.010;8.260;2023-06-22T00:45:26;10.10;;;5.67;;
26656;SDS011;14279;50.010;8.260;2023-06-22T00:47:52;7.90;;;6.50;;
26656;SDS011;14279;50.010;8.260;2023-06-22T00:50:20;7.30;;;6.23;;
26656;SDS011;14279;50.010;8.260;2023-06-22T00:52:56;22.03;;;6.07;;
26656;SDS011;14279;50.010;8.260;2023-06-22T00:55:23;8.83;;;6.23;;
26656;SDS011;14279;50.010;8.260;2023-06-22T00:57:50;10.03;;;6.40;;
26656;SDS011;14279;50.010;8.260;2023-06-22T01:00:21;10.93;;;6.40;;
26656;SDS011;14279;50.010;8.260;2023-06-22T01:02:49;13.17;;;7.37;;
26656;SDS011;14279;50.010;8.260;2023-06-22T01:05:17;7.37;;;6.63;;
26656;SDS011;14279;50.010;8.260;2023-06-22T01:07:58;9.63;;;6.60;;
26656;SDS011;14279;50.010;8.260;2023-06-22T01:10:38;8.53;;;6.83;;
26656;SDS011;14279;50.010;8.260;2023-06-22T01:13:11;9.80;;;6.47;;
26656;SDS011;14279;50.010;8.260;2023-06-22T01:16:00;9.20;;;7.00;;
26656;SDS011;14279;50.010;8.260;2023-06-22T01:18:29;15.67;;;6.40;;
26656;SDS011;14279;50.010;8.260;2023-06-22T01:20:56;10.80;;;6.63;;
26656;SDS011;14279;50.010;8.260;2023-06-22T01:26:17;9.20;;;7.20;;
26656;SDS011;14279;50.010;8.260;2023-06-22T01:28:47;9.37;;;7.50;;
26656;SDS011;14279;50.010;8.260;2023-06-22T01:31:16;9.33;;;7.10;;
26656;SDS011;14279;50.010;8.260;2023-06-22T01:33:45;10.37;;;8.10;;
26656;SDS011;14279;50.010;8.260;2023-06-22T01:36:13;8.43;;;6.80;;
26656;SDS011;14279;50.010;8.260;2023-06-22T01:38:39;8.83;;;7.03;;
26656;SDS011;14279;50.010;8.260;2023-06-22T01:41:06;21.57;;;9.27;;
26656;SDS011;14279;50.010;8.260;2023-06-22T01:43:31;12.63;;;8.03;;
26656;SDS011;14279;50.010;8.260;2023-06-22T01:45:59;17.27;;;8.03;;
26656;SDS011;14279;50.010;8.260;2023-06-22T01:48:26;11.97;;;8.03;;
26656;SDS011;14279;50.010;8.260;2023-06-22T01:50:52;12.73;;;8.77;;
26656;SDS011;14279;50.010;8.260;2023-06-22T01:53:20;9.50;;;7.50;;
26656;SDS011;14279;50.010;8.260;2023-06-22T01:55:49;12.10;;;8.40;;
26656;SDS011;14279;50.010;8.260;2023-06-22T01:58:14;15.67;;;8.67;;
26656;SDS011;14279;50.010;8.260;2023-06-22T02:00:44;8.53;;;7.47;;
26656;SDS011;14279;50.010;8.260;2023-06-22T02:03:19;12.50;;;8.17;;
26656;SDS011;14279;50.010;8.260;2023-06-22T02:06:04;14.40;;;7.67;;
26656;SDS011;14279;50.010;8.260;2023-06-22T02:08:45;16.77;;;7.80;;
26656;SDS011;14279;50.010;8.260;2023-06-22T02:11:15;11.33;;;7.80;;
26656;SDS011;14279;50.010;8.260;2023-06-22T02:13:43;10.30;;;7.70;;
26656;SDS011;14279;50.010;8.260;2023-06-22T02:16:10;20.27;;;7.80;;
26656;SDS011;14279;50.010;8.260;2023-06-22T02:18:36;10.83;;;7.10;;
26656;SDS011;14279;50.010;8.260;2023-06-22T02:21:02;19.33;;;7.50;;
26656;SDS011;14279;50.010;8.260;2023-06-22T02:23:27;12.57;;;7.63;;
26656;SDS011;14279;50.010;8.260;2023-06-22T02:25:53;12.13;;;8.30;;
26656;SDS011;14279;50.010;8.260;2023-06-22T02:28:18;11.70;;;7.57;;
26656;SDS011;14279;50.010;8.260;2023-06-22T02:30:44;10.83;;;7.50;;
26656;SDS011;14279;50.010;8.260;2023-06-22T02:33:09;10.53;;;8.13;;
26656;SDS011;14279;50.010;8.260;2023-06-22T02:35:34;9.50;;;8.10;;
26656;SDS011;14279;50.010;8.260;2023-06-22T02:38:01;10.03;;;8.70;;
26656;SDS011;14279;50.010;8.260;2023-06-22T02:40:28;10.53;;;7.60;;
26656;SDS011;14279;50.010;8.260;2023-06-22T02:42:54;11.30;;;8.87;;
26656;SDS011;14279;50.010;8.260;2023-06-22T02:45:20;13.20;;;8.33;;
26656;SDS011;14279;50.010;8.260;2023-06-22T02:47:45;10.60;;;8.37;;
26656;SDS011;14279;50.010;8.260;2023-06-22T02:50:12;10.90;;;8.10;;
26656;SDS011;14279;50.010;8.260;2023-06-22T02:52:38;9.60;;;7.97;;
26656;SDS011;14279;50.010;8.260;2023-06-22T02:55:04;10.93;;;7.67;;
26656;SDS011;14279;50.010;8.260;2023-06-22T02:57:30;14.27;;;8.90;;
26656;SDS011;14279;50.010;8.260;2023-06-22T02:59:55;22.77;;;8.57;;
26656;SDS011;14279;50.010;8.260;2023-06-22T03:02:20;12.47;;;8.07;;
26656;SDS011;14279;50.010;8.260;2023-06-22T03:04:46;11.80;;;8.90;;
26656;SDS011;14279;50.010;8.260;2023-06-22T03:07:14;16.97;;;8.70;;
26656;SDS011;14279;50.010;8.260;2023-06-22T03:09:40;9.97;;;8.80;;
26656;SDS011;14279;50.010;8.260;2023-06-22T03:12:08;12.53;;;8.20;;
26656;SDS011;14279;50.010;8.260;2023-06-22T03:14:33;10.80;;;8.47;;
26656;SDS011;14279;50.010;8.260;2023-06-22T03:16:58;11.57;;;9.30;;
26656;SDS011;14279;50.010;8.260;2023-06-22T03:19:28;10.53;;;8.73;;
26656;SDS011;14279;50.010;8.260;2023-06-22T03:21:54;11.00;;;8.87;;
26656;SDS011;14279;50.010;8.260;2023-06-22T03:24:19;13.73;;;8.03;;
26656;SDS011;14279;50.010;8.260;2023-06-22T03:26:45;9.87;;;7.83;;
26656;SDS011;14279;50.010;8.260;2023-06-22T03:29:11;9.57;;;8.20;;
26656;SDS011;14279;50.010;8.260;2023-06-22T03:31:37;10.93;;;8.90;;
26656;SDS011;14279;50.010;8.260;2023-06-22T03:34:02;11.07;;;8.30;;
26656;SDS011;14279;50.010;8.260;2023-06-22T03:36:27;10.27;;;8.20;;
26656;SDS011;14279;50.010;8.260;2023-06-22T03:38:53;12.30;;;8.00;;
26656;SDS011;14279;50.010;8.260;2023-06-22T03:41:18;13.10;;;8.00;;
26656;SDS011;14279;50.010;8.260;2023-06-22T03:43:43;11.90;;;7.50;;
26656;SDS011;14279;50.010;8.260;2023-06-22T03:46:08;10.20;;;8.40;;
26656;SDS011;14279;50.010;8.260;2023-06-22T03:48:33;11.90;;;8.37;;
26656;SDS011;14279;50.010;8.260;2023-06-22T03:50:59;9.73;;;7.70;;
26656;SDS011;14279;50.010;8.260;2023-06-22T03:53:25;8.93;;;8.00;;
26656;SDS011;14279;50.010;8.260;2023-06-22T03:55:51;11.40;;;7.60;;
26656;SDS011;14279;50.010;8.260;2023-06-22T03:58:17;17.73;;;8.27;;
26656;SDS011;14279;50.010;8.260;2023-06-22T04:00:44;12.77;;;7.73;;
26656;SDS011;14279;50.010;8.260;2023-06-22T04:03:10;12.23;;;8.67;;
26656;SDS011;14279;50.010;8.260;2023-06-22T04:05:37;10.80;;;8.77;;
26656;SDS011;14279;50.010;8.260;2023-06-22T04:08:03;9.70;;;7.87;;
26656;SDS011;14279;50.010;8.260;2023-06-22T04:10:29;13.07;;;8.60;;
26656;SDS011;14279;50.010;8.260;2023-06-22T04:12:54;11.03;;;8.63;;
26656;SDS011;14279;50.010;8.260;2023-06-22T04:15:19;11.80;;;8.23;;
26656;SDS011;14279;50.010;8.260;2023-06-22T04:17:45;9.47;;;8.47;;
26656;SDS011;14279;50.010;8.260;2023-06-22T04:20:10;10.43;;;8.53;;
26656;SDS011;14279;50.010;8.260;2023-06-22T04:22:35;9.30;;;8.07;;
26656;SDS011;14279;50.010;8.260;2023-06-22T04:25:01;15.07;;;7.93;;
26656;SDS011;14279;50.010;8.260;2023-06-22T04:27:26;9.67;;;7.97;;
26656;SDS011;14279;50.010;8.260;2023-06-22T04:29:51;9.07;;;7.77;;
26656;SDS011;14279;50.010;8.260;2023-06-22T04:32:17;10.70;;;8.00;;
26656;SDS011;14279;50.010;8.260;2023-06-22T04:34:42;9.93;;;7.60;;
26656;SDS011;14279;50.010;8.260;2023-06-22T04:37:08;8.83;;;7.80;;
26656;SDS011;14279;50.010;8.260;2023-06-22T04:39:33;14.40;;;8.53;;
26656;SDS011;14279;50.010;8.260;2023-06-22T04:41:58;8.43;;;7.53;;
26656;SDS011;14279;50.010;8.260;2023-06-22T04:44:27;11.57;;;8.03;;
26656;SDS011;14279;50.010;8.260;2023-06-22T04:46:53;9.80;;;8.10;;
26656;SDS011;14279;50.010;8.260;2023-06-22T04:49:25;9.40;;;8.50;;
26656;SDS011;14279;50.010;8.260;2023-06-22T04:51:57;11.10;;;8.93;;
26656;SDS011;14279;50.010;8.260;2023-06-22T04:54:23;15.30;;;9.10;;
26656;SDS011;14279;50.010;8.260;2023-06-22T04:56:48;11.50;;;8.50;;
26656;SDS011;14279;50.010;8.260;2023-06-22T04:59:21;19.53;;;8.80;;
26656;SDS011;14279;50.010;8.260;2023-06-22T05:01:46;15.40;;;10.50;;
26656;SDS011;14279;50.010;8.260;2023-06-22T05:04:12;13.70;;;9.17;;
26656;SDS011;14279;50.010;8.260;2023-06-22T05:06:37;10.00;;;8.77;;
26656;SDS011;14279;50.010;8.260;2023-06-22T05:09:03;14.40;;;9.13;;
26656;SDS011;14279;50.010;8.260;2023-06-22T05:11:30;12.40;;;9.20;;
26656;SDS011;14279;50.010;8.260;2023-06-22T05:13:55;12.80;;;8.57;;
26656;SDS011;14279;50.010;8.260;2023-06-22T05:16:22;14.53;;;8.77;;
26656;SDS011;14279;50.010;8.260;2023-06-22T05:18:51;17.93;;;9.93;;
26656;SDS011;14279;50.010;8.260;2023-06-22T05:21:19;13.57;;;8.80;;
26656;SDS011;14279;50.010;8.260;2023-06-22T05:23:49;15.40;;;8.97;;
26656;SDS011;14279;50.010;8.260;2023-06-22T05:26:15;11.07;;;8.93;;
26656;SDS011;14279;50.010;8.260;2023-06-22T05:28:40;12.90;;;8.70;;
26656;SDS011;14279;50.010;8.260;2023-06-22T05:31:06;12.23;;;9.50;;
26656;SDS011;14279;50.010;8.260;2023-06-22T05:33:31;18.13;;;10.20;;
26656;SDS011;14279;50.010;8.260;2023-06-22T05:35:56;13.80;;;9.30;;
26656;SDS011;14279;50.010;8.260;2023-06-22T05:38:25;10.50;;;9.40;;
26656;SDS011;14279;50.010;8.260;2023-06-22T05:40:50;12.23;;;9.33;;
26656;SDS011;14279;50.010;8.260;2023-06-22T05:43:16;12.60;;;8.90;;
26656;SDS011;14279;50.010;8.260;2023-06-22T05:45:55;11.90;;;9.20;;
26656;SDS011;14279;50.010;8.260;2023-06-22T05:48:20;9.53;;;8.33;;
26656;SDS011;14279;50.010;8.260;2023-06-22T05:50:45;11.53;;;9.00;;
26656;SDS011;14279;50.010;8.260;2023-06-22T05:53:12;10.40;;;8.40;;
26656;SDS011;14279;50.010;8.260;2023-06-22T05:55:41;15.37;;;8.63;;
26656;SDS011;14279;50.010;8.260;2023-06-22T05:58:07;10.37;;;9.13;;
26656;SDS011;14279;50.010;8.260;2023-06-22T06:00:33;15.93;;;8.50;;
26656;SDS011;14279;50.010;8.260;2023-06-22T06:02:58;9.93;;;8.30;;
26656;SDS011;14279;50.010;8.260;2023-06-22T06:05:28;9.97;;;8.17;;
26656;SDS011;14279;50.010;8.260;2023-06-22T06:07:53;15.30;;;8.30;;
26656;SDS011;14279;50.010;8.260;2023-06-22T06:10:18;13.70;;;8.83;;
26656;SDS011;14279;50.010;8.260;2023-06-22T06:12:44;11.57;;;7.60;;
26656;SDS011;14279;50.010;8.260;2023-06-22T06:15:09;10.37;;;8.00;;
26656;SDS011;14279;50.010;8.260;2023-06-22T06:17:34;16.03;;;8.20;;
26656;SDS011;14279;50.010;8.260;2023-06-22T06:20:00;13.90;;;9.13;;
26656;SDS011;14279;50.010;8.260;2023-06-22T06:22:26;15.10;;;7.83;;
26656;SDS011;14279;50.010;8.260;2023-06-22T06:24:51;9.37;;;7.93;;
26656;SDS011;14279;50.010;8.260;2023-06-22T06:27:16;11.77;;;8.53;;
26656;SDS011;14279;50.010;8.260;2023-06-22T06:29:43;12.50;;;8.23;;
26656;SDS011;14279;50.010;8.260;2023-06-22T06:32:10;11.40;;;7.97;;
26656;SDS011;14279;50.010;8.260;2023-06-22T06:34:36;11.40;;;7.93;;
26656;SDS011;14279;50.010;8.260;2023-06-22T06:37:07;11.20;;;9.37;;
26656;SDS011;14279;50.010;8.260;2023-06-22T06:40:15;12.80;;;9.00;;
26656;SDS011;14279;50.010;8.260;2023-06-22T06:42:43;9.87;;;8.30;;
26656;SDS011;14279;50.010;8.260;2023-06-22T06:45:22;14.47;;;8.20;;
26656;SDS011;14279;50.010;8.260;2023-06-22T06:47:49;10.03;;;8.80;;
26656;SDS011;14279;50.010;8.260;2023-06-22T06:50:15;15.27;;;8.80;;
26656;SDS011;14279;50.010;8.260;2023-06-22T06:52:41;13.60;;;9.00;;
26656;SDS011;14279;50.010;8.260;2023-06-22T06:55:07;9.80;;;8.67;;
26656;SDS011;14279;50.010;8.260;2023-06-22T06:57:36;19.23;;;9.07;;
26656;SDS011;14279;50.010;8.260;2023-06-22T07:00:03;8.63;;;7.83;;
26656;SDS011;14279;50.010;8.260;2023-06-22T07:02:34;11.33;;;8.93;;
26656;SDS011;14279;50.010;8.260;2023-06-22T07:05:00;11.00;;;8.77;;
26656;SDS011;14279;50.010;8.260;2023-06-22T07:07:25;9.23;;;8.30;;
26656;SDS011;14279;50.010;8.260;2023-06-22T07:09:50;13.47;;;8.87;;
26656;SDS011;14279;50.010;8.260;2023-06-22T07:12:15;13.53;;;8.90;;
26656;SDS011;14279;50.010;8.260;2023-06-22T07:14:41;16.70;;;9.63;;
26656;SDS011;14279;50.010;8.260;2023-06-22T07:17:06;9.00;;;8.10;;
26656;SDS011;14279;50.010;8.260;2023-06-22T07:19:32;12.97;;;8.97;;
26656;SDS011;14279;50.010;8.260;2023-06-22T07:21:58;15.70;;;8.10;;
26656;SDS011;14279;50.010;8.260;2023-06-22T07:24:23;14.07;;;9.20;;
26656;SDS011;14279;50.010;8.260;2023-06-22T07:26:49;11.53;;;8.27;;
26656;SDS011;14279;50.010;8.260;2023-06-22T07:29:18;13.40;;;9.00;;
26656;SDS011;14279;50.010;8.260;2023-06-22T07:31:46;12.50;;;7.73;;
26656;SDS011;14279;50.010;8.260;2023-06-22T07:34:11;15.83;;;8.10;;
26656;SDS011;14279;50.010;8.260;2023-06-22T07:36:37;9.43;;;8.23;;
26656;SDS011;14279;50.010;8.260;2023-06-22T07:39:03;10.80;;;8.67;;
26656;SDS011;14279;50.010;8.260;2023-06-22T07:41:28;14.20;;;8.43;;
26656;SDS011;14279;50.010;8.260;2023-06-22T07:43:54;13.07;;;8.33;;
26656;SDS011;14279;50.010;8.260;2023-06-22T07:46:19;9.43;;;7.50;;
26656;SDS011;14279;50.010;8.260;2023-06-22T07:48:45;11.30;;;7.80;;
26656;SDS011;14279;50.010;8.260;2023-06-22T07:51:10;12.17;;;9.70;;
26656;SDS011;14279;50.010;8.260;2023-06-22T07:53:39;11.13;;;8.07;;
26656;SDS011;14279;50.010;8.260;2023-06-22T07:56:05;13.10;;;8.53;;
26656;SDS011;14279;50.010;8.260;2023-06-22T07:58:32;15.37;;;8.57;;
26656;SDS011;14279;50.010;8.260;2023-06-22T08:00:57;10.13;;;8.67;;
26656;SDS011;14279;50.010;8.260;2023-06-22T08:03:22;9.97;;;8.00;;
26656;SDS011;14279;50.010;8.260;2023-06-22T08:05:48;14.90;;;8.60;;
26656;SDS011;14279;50.010;8.260;2023-06-22T08:08:13;16.60;;;8.77;;
26656;SDS011;14279;50.010;8.260;2023-06-22T08:10:39;21.53;;;8.20;;
26656;SDS011;14279;50.010;8.260;2023-06-22T08:13:05;16.00;;;8.37;;
26656;SDS011;14279;50.010;8.260;2023-06-22T08:15:31;9.80;;;8.80;;
26656;SDS011;14279;50.010;8.260;2023-06-22T08:17:56;12.93;;;8.60;;
26656;SDS011;14279;50.010;8.260;2023-06-22T08:20:22;18.10;;;9.17;;
26656;SDS011;14279;50.010;8.260;2023-06-22T08:22:48;14.00;;;9.00;;
26656;SDS011;14279;50.010;8.260;2023-06-22T08:25:13;23.63;;;8.90;;
26656;SDS011;14279;50.010;8.260;2023-06-22T08:27:38;11.20;;;8.90;;
26656;SDS011;14279;50.010;8.260;2023-06-22T08:30:04;19.73;;;9.13;;
26656;SDS011;14279;50.010;8.260;2023-06-22T08:32:31;10.07;;;9.03;;
26656;SDS011;14279;50.010;8.260;2023-06-22T08:34:57;12.70;;;9.07;;
26656;SDS011;14279;50.010;8.260;2023-06-22T08:37:23;14.93;;;9.20;;
26656;SDS011;14279;50.010;8.260;2023-06-22T08:39:55;12.07;;;9.20;;
26656;SDS011;14279;50.010;8.260;2023-06-22T08:42:21;11.63;;;7.87;;
26656;SDS011;14279;50.010;8.260;2023-06-22T08:44:48;10.57;;;9.10;;
26656;SDS011;14279;50.010;8.260;2023-06-22T08:47:13;9.13;;;8.13;;
26656;SDS011;14279;50.010;8.260;2023-06-22T08:49:38;18.20;;;9.07;;
26656;SDS011;14279;50.010;8.260;2023-06-22T08:52:04;18.80;;;9.30;;
26656;SDS011;14279;50.010;8.260;2023-06-22T08:54:29;16.17;;;9.33;;
26656;SDS011;14279;50.010;8.260;2023-06-22T08:56:59;14.10;;;9.50;;
26656;SDS011;14279;50.010;8.260;2023-06-22T08:59:24;13.83;;;9.00;;
26656;SDS011;14279;50.010;8.260;2023-06-22T09:01:50;15.90;;;9.13;;
26656;SDS011;14279;50.010;8.260;2023-06-22T09:04:15;11.07;;;8.50;;
26656;SDS011;14279;50.010;8.260;2023-06-22T09:06:40;16.30;;;9.30;;
26656;SDS011;14279;50.010;8.260;2023-06-22T09:09:10;13.53;;;8.37;;
26656;SDS011;14279;50.010;8.260;2023-06-22T09:11:35;13.20;;;9.27;;
26656;SDS011;14279;50.010;8.260;2023-06-22T09:14:00;12.23;;;7.93;;
26656;SDS011;14279;50.010;8.260;2023-06-22T09:16:26;10.20;;;8.50;;
26656;SDS011;14279;50.010;8.260;2023-06-22T09:18:51;10.20;;;8.23;;
26656;SDS011;14279;50.010;8.260;2023-06-22T09:21:16;13.23;;;9.40;;
26656;SDS011;14279;50.010;8.260;2023-06-22T09:23:41;11.33;;;8.33;;
26656;SDS011;14279;50.010;8.260;2023-06-22T09:26:07;10.87;;;8.60;;
26656;SDS011;14279;50.010;8.260;2023-06-22T09:28:33;13.40;;;9.40;;
26656;SDS011;14279;50.010;8.260;2023-06-22T09:30:59;13.37;;;8.80;;
26656;SDS011;14279;50.010;8.260;2023-06-22T09:33:25;10.17;;;7.90;;
26656;SDS011;14279;50.010;8.260;2023-06-22T09:35:51;15.53;;;8.30;;
26656;SDS011;14279;50.010;8.260;2023-06-22T09:38:16;14.10;;;8.40;;
26656;SDS011;14279;50.010;8.260;2023-06-22T09:40:42;10.13;;;8.23;;
26656;SDS011;14279;50.010;8.260;2023-06-22T09:43:07;11.83;;;7.97;;
26656;SDS011;14279;50.010;8.260;2023-06-22T09:45:33;10.30;;;8.10;;
26656;SDS011;14279;50.010;8.260;2023-06-22T09:47:59;9.90;;;8.00;;
26656;SDS011;14279;50.010;8.260;2023-06-22T09:50:24;13.03;;;8.00;;
26656;SDS011;14279;50.010;8.260;2023-06-22T09:52:49;11.33;;;8.73;;
26656;SDS011;14279;50.010;8.260;2023-06-22T09:55:19;10.20;;;8.17;;
26656;SDS011;14279;50.010;8.260;2023-06-22T09:57:45;10.57;;;8.23;;
26656;SDS011;14279;50.010;8.260;2023-06-22T10:00:10;9.13;;;8.23;;
26656;SDS011;14279;50.010;8.260;2023-06-22T10:02:41;12.67;;;8.23;;
26656;SDS011;14279;50.010;8.260;2023-06-22T10:05:06;9.33;;;7.53;;
26656;SDS011;14279;50.010;8.260;2023-06-22T10:07:32;16.20;;;8.30;;
26656;SDS011;14279;50.010;8.260;2023-06-22T10:09:58;8.73;;;6.70;;
26656;SDS011;14279;50.010;8.260;2023-06-22T10:12:23;9.87;;;7.77;;
26656;SDS011;14279;50.010;8.260;2023-06-22T10:14:48;9.00;;;7.90;;
26656;SDS011;14279;50.010;8.260;2023-06-22T10:17:14;9.73;;;7.70;;
26656;SDS011;14279;50.010;8.260;2023-06-22T10:19:39;9.07;;;8.20;;
26656;SDS011;14279;50.010;8.260;2023-06-22T10:22:06;12.83;;;8.40;;
26656;SDS011;14279;50.010;8.260;2023-06-22T10:24:32;17.40;;;7.60;;
26656;SDS011;14279;50.010;8.260;2023-06-22T10:26:57;9.43;;;7.00;;
26656;SDS011;14279;50.010;8.260;2023-06-22T10:29:22;9.17;;;7.60;;
26656;SDS011;14279;50.010;8.260;2023-06-22T10:31:47;12.23;;;7.23;;
26656;SDS011;14279;50.010;8.260;2023-06-22T10:34:13;13.13;;;8.20;;
26656;SDS011;14279;50.010;8.260;2023-06-22T10:36:38;12.70;;;7.80;;
26656;SDS011;14279;50.010;8.260;2023-06-22T10:39:04;10.93;;;6.80;;
26656;SDS011;14279;50.010;8.260;2023-06-22T10:41:29;12.90;;;7.40;;
26656;SDS011;14279;50.010;8.260;2023-06-22T10:43:55;9.90;;;7.10;;
26656;SDS011;14279;50.010;8.260;2023-06-22T10:46:21;9.27;;;6.33;;
26656;SDS011;14279;50.010;8.260;2023-06-22T10:48:46;10.30;;;7.30;;
26656;SDS011;14279;50.010;8.260;2023-06-22T10:51:11;6.90;;;6.20;;
26656;SDS011;14279;50.010;8.260;2023-06-22T10:53:37;8.77;;;6.93;;
26656;SDS011;14279;50.010;8.260;2023-06-22T10:56:03;9.70;;;6.60;;
26656;SDS011;14279;50.010;8.260;2023-06-22T10:58:28;9.37;;;6.87;;
26656;SDS011;14279;50.010;8.260;2023-06-22T11:00:54;11.53;;;5.93;;
26656;SDS011;14279;50.010;8.260;2023-06-22T11:03:19;15.77;;;6.80;;
26656;SDS011;14279;50.010;8.260;2023-06-22T11:05:44;15.10;;;6.27;;
26656;SDS011;14279;50.010;8.260;2023-06-22T11:08:10;9.50;;;6.10;;
26656;SDS011;14279;50.010;8.260;2023-06-22T11:10:36;8.70;;;5.27;;
26656;SDS011;14279;50.010;8.260;2023-06-22T11:13:01;10.27;;;6.53;;
26656;SDS011;14279;50.010;8.260;2023-06-22T11:15:29;13.57;;;6.30;;
26656;SDS011;14279;50.010;8.260;2023-06-22T11:17:54;9.47;;;5.70;;
26656;SDS011;14279;50.010;8.260;2023-06-22T11:20:19;9.87;;;6.07;;
26656;SDS011;14279;50.010;8.260;2023-06-22T11:22:44;10.97;;;5.97;;
26656;SDS011;14279;50.010;8.260;2023-06-22T11:25:10;11.90;;;5.77;;
26656;SDS011;14279;50.010;8.260;2023-06-22T11:27:37;9.37;;;5.80;;
26656;SDS011;14279;50.010;8.260;2023-06-22T11:30:02;13.93;;;6.50;;
26656;SDS011;14279;50.010;8.260;2023-06-22T11:32:28;12.40;;;6.20;;
26656;SDS011;14279;50.010;8.260;2023-06-22T11:34:53;7.80;;;6.00;;
26656;SDS011;14279;50.010;8.260;2023-06-22T11:37:18;17.43;;;6.60;;
26656;SDS011;14279;50.010;8.260;2023-06-22T11:39:43;12.43;;;5.90;;
26656;SDS011;14279;50.010;8.260;2023-06-22T11:42:09;15.70;;;5.90;;
26656;SDS011;14279;50.010;8.260;2023-06-22T11:44:35;12.23;;;6.97;;
26656;SDS011;14279;50.010;8.260;2023-06-22T11:47:00;16.77;;;6.37;;
26656;SDS011;14279;50.010;8.260;2023-06-22T11:49:26;9.33;;;6.17;;
26656;SDS011;14279;50.010;8.260;2023-06-22T11:51:52;13.23;;;6.40;;
26656;SDS011;14279;50.010;8.260;2023-06-22T11:54:17;13.00;;;6.63;;
26656;SDS011;14279;50.010;8.260;2023-06-22T11:56:42;9.47;;;6.40;;
26656;SDS011;14279;50.010;8.260;2023-06-22T11:59:07;13.90;;;6.63;;
26656;SDS011;14279;50.010;8.260;2023-06-22T12:01:33;9.00;;;6.20;;
26656;SDS011;14279;50.010;8.260;2023-06-22T12:03:58;7.80;;;5.90;;
26656;SDS011;14279;50.010;8.260;2023-06-22T12:06:23;10.17;;;6.30;;
26656;SDS011;14279;50.010;8.260;2023-06-22T12:08:48;12.00;;;5.87;;
26656;SDS011;14279;50.010;8.260;2023-06-22T12:11:14;9.00;;;6.00;;
26656;SDS011;14279;50.010;8.260;2023-06-22T12:13:39;9.00;;;6.00;;
26656;SDS011;14279;50.010;8.260;2023-06-22T12:16:04;12.40;;;6.50;;
26656;SDS011;14279;50.010;8.260;2023-06-22T12:18:30;10.70;;;6.83;;
26656;SDS011;14279;50.010;8.260;2023-06-22T12:20:55;10.27;;;6.43;;
26656;SDS011;14279;50.010;8.260;2023-06-22T12:23:20;10.27;;;5.63;;
26656;SDS011;14279;50.010;8.260;2023-06-22T12:25:45;16.13;;;6.33;;
26656;SDS011;14279;50.010;8.260;2023-06-22T12:28:11;10.87;;;6.73;;
26656;SDS011;14279;50.010;8.260;2023-06-22T12:30:36;9.47;;;6.40;;
26656;SDS011;14279;50.010;8.260;2023-06-22T12:33:01;17.93;;;6.53;;
26656;SDS011;14279;50.010;8.260;2023-06-22T12:35:26;11.53;;;6.40;;
26656;SDS011;14279;50.010;8.260;2023-06-22T12:37:52;11.13;;;7.20;;
26656;SDS011;14279;50.010;8.260;2023-06-22T12:40:17;11.60;;;5.80;;
26656;SDS011;14279;50.010;8.260;2023-06-22T12:42:44;10.73;;;6.40;;
26656;SDS011;14279;50.010;8.260;2023-06-22T12:45:10;13.60;;;6.57;;
26656;SDS011;14279;50.010;8.260;2023-06-22T12:47:35;9.33;;;6.50;;
26656;SDS011;14279;50.010;8.260;2023-06-22T12:50:00;7.00;;;5.50;;
26656;SDS011;14279;50.010;8.260;2023-06-22T12:52:25;13.47;;;7.07;;
26656;SDS011;14279;50.010;8.260;2023-06-22T12:54:51;12.30;;;7.10;;
26656;SDS011;14279;50.010;8.260;2023-06-22T12:57:17;12.37;;;7.07;;
26656;SDS011;14279;50.010;8.260;2023-06-22T12:59:44;9.33;;;6.23;;
26656;SDS011;14279;50.010;8.260;2023-06-22T13:02:09;14.90;;;7.10;;
26656;SDS011;14279;50.010;8.260;2023-06-22T13:04:34;12.00;;;7.20;;
26656;SDS011;14279;50.010;8.260;2023-06-22T13:07:00;9.93;;;6.57;;
26656;SDS011;14279;50.010;8.260;2023-06-22T13:09:25;11.10;;;7.17;;
26656;SDS011;14279;50.010;8.260;2023-06-22T13:11:50;13.07;;;7.03;;
26656;SDS011;14279;50.010;8.260;2023-06-22T13:14:17;12.53;;;6.60;;
26656;SDS011;14279;50.010;8.260;2023-06-22T13:16:42;10.33;;;6.90;;
26656;SDS011;14279;50.010;8.260;2023-06-22T13:19:07;18.80;;;6.63;;
26656;SDS011;14279;50.010;8.260;2023-06-22T13:21:33;15.40;;;6.77;;
26656;SDS011;14279;50.010;8.260;2023-06-22T13:23:59;12.90;;;6.50;;
26656;SDS011;14279;50.010;8.260;2023-06-22T13:26:24;10.50;;;6.47;;
26656;SDS011;14279;50.010;8.260;2023-06-22T13:28:49;13.77;;;6.10;;
26656;SDS011;14279;50.010;8.260;2023-06-22T13:31:15;16.20;;;6.90;;
26656;SDS011;14279;50.010;8.260;2023-06-22T13:33:40;10.30;;;6.03;;
26656;SDS011;14279;50.010;8.260;2023-06-22T13:36:06;9.00;;;5.80;;
26656;SDS011;14279;50.010;8.260;2023-06-22T13:38:32;11.60;;;6.70;;
26656;SDS011;14279;50.010;8.260;2023-06-22T13:40:57;13.53;;;6.20;;
26656;SDS011;14279;50.010;8.260;2023-06-22T13:43:24;12.97;;;6.00;;
26656;SDS011;14279;50.010;8.260;2023-06-22T13:45:49;12.60;;;6.20;;
26656;SDS011;14279;50.010;8.260;2023-06-22T13:48:15;12.73;;;6.60;;
26656;SDS011;14279;50.010;8.260;2023-06-22T13:50:40;15.20;;;6.30;;
26656;SDS011;14279;50.010;8.260;2023-06-22T13:53:05;8.60;;;6.10;;
26656;SDS011;14279;50.010;8.260;2023-06-22T13:55:30;17.30;;;6.13;;
26656;SDS011;14279;50.010;8.260;2023-06-22T13:57:56;26.23;;;5.97;;
26656;SDS011;14279;50.010;8.260;2023-06-22T14:00:21;14.57;;;6.03;;
26656;SDS011;14279;50.010;8.260;2023-06-22T14:02:46;13.67;;;5.00;;
26656;SDS011;14279;50.010;8.260;2023-06-22T14:05:12;13.43;;;5.37;;
26656;SDS011;14279;50.010;8.260;2023-06-22T14:07:37;10.00;;;4.83;;
26656;SDS011;14279;50.010;8.260;2023-06-22T14:10:03;17.90;;;5.20;;
26656;SDS011;14279;50.010;8.260;2023-06-22T14:12:29;21.77;;;4.60;;
26656;SDS011;14279;50.010;8.260;2023-06-22T14:14:54;12.90;;;5.50;;
26656;SDS011;14279;50.010;8.260;2023-06-22T14:17:20;18.23;;;5.27;;
26656;SDS011;14279;50.010;8.260;2023-06-22T14:19:49;13.07;;;5.10;;
26656;SDS011;14279;50.010;8.260;2023-06-22T14:22:14;24.33;;;5.37;;
26656;SDS011;14279;50.010;8.260;2023-06-22T14:24:40;11.80;;;5.00;;
26656;SDS011;14279;50.010;8.260;2023-06-22T14:27:05;29.63;;;5.67;;
26656;SDS011;14279;50.010;8.260;2023-06-22T14:29:32;18.33;;;5.20;;
26656;SDS011;14279;50.010;8.260;2023-06-22T14:31:57;13.90;;;5.23;;
26656;SDS011;14279;50.010;8.260;2023-06-22T14:34:24;13.93;;;4.93;;
26656;SDS011;14279;50.010;8.260;2023-06-22T14:36:49;15.20;;;5.20;;